Time,TemperatureF,DewpointF,PressureIn,WindDirection,WindDirectionDegrees,WindSpeedMPH,WindSpeedGustMPH,Humidity,HourlyPrecipIn,Conditions,Clouds,dailyrainin,SoftwareType,DateUTC
2013-04-14 00:12:00,35.6,29.1,29.87,NW,315,4.2,-999.0,77,-99.99,,,0.00,Acu-Link.com,2013-04-14 04:12:00,
2013-04-14 00:27:00,35.6,29.4,29.87,NW,315,4.2,-999.0,78,-99.99,,,0.00,Acu-Link.com,2013-04-14 04:27:00,
2013-04-14 00:42:00,35.4,29.5,29.87,West,270,3.7,-999.0,79,-99.99,,,0.00,Acu-Link.com,2013-04-14 04:42:00,
2013-04-14 00:58:00,35.4,29.5,29.87,WSW,247,4.7,-999.0,79,-99.99,,,0.00,Acu-Link.com,2013-04-14 04:58:00,
2013-04-14 01:13:00,35.2,29.4,29.87,West,270,4.2,-999.0,79,-99.99,,,0.00,Acu-Link.com,2013-04-14 05:13:00,
2013-04-14 01:28:00,35.1,29.9,29.88,SSW,202,2.7,-999.0,81,-99.99,,,0.00,Acu-Link.com,2013-04-14 05:28:00,
2013-04-14 01:43:00,35.1,29.9,29.88,WNW,292,1.7,-999.0,81,-99.99,,,0.00,Acu-Link.com,2013-04-14 05:43:00,
2013-04-14 01:59:00,35.1,30.2,29.88,WNW,292,2.2,-999.0,82,-99.99,,,0.00,Acu-Link.com,2013-04-14 05:59:00,
2013-04-14 02:14:00,34.9,30.0,29.88,SW,225,0.0,-999.0,82,-99.99,,,0.00,Acu-Link.com,2013-04-14 06:14:00,
2013-04-14 02:29:00,34.7,30.1,29.88,SSW,202,2.2,-999.0,83,-99.99,,,0.00,Acu-Link.com,2013-04-14 06:29:00,
2013-04-14 02:44:00,34.5,29.9,29.88,WSW,247,0.0,-999.0,83,-99.99,,,0.00,Acu-Link.com,2013-04-14 06:44:00,
2013-04-14 02:59:00,34.3,30.0,29.88,West,270,0.0,-999.0,84,-99.99,,,0.00,Acu-Link.com,2013-04-14 06:59:00,
2013-04-14 03:14:00,34.2,30.2,29.89,SW,225,2.7,-999.0,85,-99.99,,,0.00,Acu-Link.com,2013-04-14 07:14:00,
2013-04-14 03:29:00,34.2,30.2,29.88,WSW,247,1.7,-999.0,85,-99.99,,,0.00,Acu-Link.com,2013-04-14 07:29:00,
2013-04-14 03:45:00,34.2,30.2,29.89,West,270,2.2,-999.0,85,-99.99,,,0.00,Acu-Link.com,2013-04-14 07:45:00,
2013-04-14 04:00:00,34.2,30.2,29.90,SW,225,0.0,-999.0,85,-99.99,,,0.00,Acu-Link.com,2013-04-14 08:00:00,
2013-04-14 04:15:00,34.2,30.2,29.89,SW,225,2.7,-999.0,85,-99.99,,,0.00,Acu-Link.com,2013-04-14 08:15:00,
2013-04-14 04:30:00,33.8,29.8,29.89,WNW,292,2.2,-999.0,85,-99.99,,,0.00,Acu-Link.com,2013-04-14 08:30:00,
2013-04-14 04:46:00,32.9,29.5,29.90,West,270,1.7,-999.0,87,-99.99,,,0.00,Acu-Link.com,2013-04-14 08:46:00,
2013-04-14 05:31:00,30.9,28.6,29.91,WSW,247,1.7,-999.0,91,-99.99,,,0.00,Acu-Link.com,2013-04-14 09:31:00,
2013-04-14 05:46:00,30.4,28.4,29.91,SW,225,0.0,-999.0,92,-99.99,,,0.00,Acu-Link.com,2013-04-14 09:46:00,
2013-04-14 06:01:00,28.9,27.7,29.92,SSW,202,0.0,-999.0,95,-99.99,,,0.00,Acu-Link.com,2013-04-14 10:01:00,
2013-04-14 06:16:00,28.6,27.9,29.92,SSW,202,0.0,-999.0,97,-99.99,,,0.00,Acu-Link.com,2013-04-14 10:16:00,
2013-04-14 06:31:00,28.2,27.7,29.93,SSE,157,0.0,-999.0,98,-99.99,,,0.00,Acu-Link.com,2013-04-14 10:31:00,
2013-04-14 06:47:00,28.4,27.9,29.94,West,270,1.1,-999.0,98,-99.99,,,0.00,Acu-Link.com,2013-04-14 10:47:00,
2013-04-14 07:02:00,28.4,27.9,29.95,SSW,202,1.7,-999.0,98,-99.99,,,0.00,Acu-Link.com,2013-04-14 11:02:00,
2013-04-14 07:17:00,28.8,28.3,29.95,SSW,202,0.0,-999.0,98,-99.99,,,0.00,Acu-Link.com,2013-04-14 11:17:00,
2013-04-14 07:32:00,29.7,29.0,29.96,SSW,202,0.0,-999.0,97,-99.99,,,0.00,Acu-Link.com,2013-04-14 11:32:00,
2013-04-14 07:48:00,30.4,29.7,29.96,WSW,247,1.1,-999.0,97,-99.99,,,0.00,Acu-Link.com,2013-04-14 11:48:00,
2013-04-14 08:03:00,31.6,30.1,29.97,SSW,202,3.2,-999.0,94,-99.99,,,0.00,Acu-Link.com,2013-04-14 12:03:00,
2013-04-14 08:18:00,33.1,30.5,29.98,WSW,247,2.7,-999.0,90,-99.99,,,0.00,Acu-Link.com,2013-04-14 12:18:00,
2013-04-14 08:33:00,34.5,31.0,29.98,West,270,2.7,-999.0,87,-99.99,,,0.00,Acu-Link.com,2013-04-14 12:33:00,
2013-04-14 08:48:00,36.0,31.0,29.98,WSW,247,5.3,-999.0,82,-99.99,,,0.00,Acu-Link.com,2013-04-14 12:48:00,
2013-04-14 09:03:00,37.4,32.1,29.97,West,270,2.2,-999.0,81,-99.99,,,0.00,Acu-Link.com,2013-04-14 13:03:00,
2013-04-14 09:18:00,37.0,30.8,29.96,NNW,337,2.2,-999.0,78,-99.99,,,0.00,Acu-Link.com,2013-04-14 13:18:00,
2013-04-14 09:34:00,39.2,31.3,29.96,WNW,292,3.2,-999.0,73,-99.99,,,0.00,Acu-Link.com,2013-04-14 13:34:00,
2013-04-14 09:49:00,38.5,30.9,29.95,NW,315,3.7,-999.0,74,-99.99,,,0.00,Acu-Link.com,2013-04-14 13:49:00,
2013-04-14 10:05:00,39.4,31.1,29.94,NNW,337,4.2,-999.0,72,-99.99,,,0.00,Acu-Link.com,2013-04-14 14:05:00,
2013-04-14 10:20:00,41.5,32.8,29.95,NW,315,2.2,-999.0,71,-99.99,,,0.00,Acu-Link.com,2013-04-14 14:20:00,
2013-04-14 10:35:00,41.5,31.4,29.95,SW,225,2.7,-999.0,67,-99.99,,,0.00,Acu-Link.com,2013-04-14 14:35:00,
2013-04-14 10:51:00,41.7,30.4,29.94,North,0,2.2,-999.0,64,-99.99,,,0.00,Acu-Link.com,2013-04-14 14:51:00,
2013-04-14 11:21:00,42.4,30.3,29.95,SSW,202,1.7,-999.0,62,-99.99,,,0.00,Acu-Link.com,2013-04-14 15:21:00,
2013-04-14 11:39:00,45.7,31.8,29.98,SSE,157,0.0,-999.0,58,-99.99,,,0.00,Acu-Link.com,2013-04-14 15:39:00,
2013-04-14 11:54:00,45.1,30.4,29.99,SSE,157,1.1,-999.0,56,-99.99,,,0.00,Acu-Link.com,2013-04-14 15:54:00,
2013-04-14 12:09:00,43.0,29.7,30.00,SSE,157,1.7,-999.0,59,-99.99,,,0.00,Acu-Link.com,2013-04-14 16:09:00,
2013-04-14 12:25:00,43.2,30.3,29.99,South,180,2.7,-999.0,60,-99.99,,,0.00,Acu-Link.com,2013-04-14 16:25:00,
2013-04-14 12:41:00,43.3,29.5,29.98,ESE,112,2.7,-999.0,58,-99.99,,,0.00,Acu-Link.com,2013-04-14 16:41:00,
2013-04-14 12:56:00,42.6,29.3,30.00,SSW,202,4.7,-999.0,59,-99.99,,,0.00,Acu-Link.com,2013-04-14 16:56:00,
2013-04-14 13:41:00,43.2,30.7,29.99,SSW,202,2.2,-999.0,61,-99.99,,,0.00,Acu-Link.com,2013-04-14 17:41:00,
2013-04-14 14:12:00,43.5,31.0,29.97,SSW,202,2.7,-999.0,61,-99.99,,,0.00,Acu-Link.com,2013-04-14 18:12:00,
2013-04-14 14:27:00,45.0,31.1,29.96,WSW,247,2.7,-999.0,58,-99.99,,,0.00,Acu-Link.com,2013-04-14 18:27:00,
2013-04-14 14:44:00,48.2,31.9,29.95,ESE,112,3.7,-999.0,53,-99.99,,,0.00,Acu-Link.com,2013-04-14 18:44:00,
2013-04-14 14:59:00,47.3,33.3,29.93,ESE,112,2.2,-999.0,58,-99.99,,,0.00,Acu-Link.com,2013-04-14 18:59:00,
2013-04-14 15:19:00,45.1,32.5,29.93,ESE,112,2.2,-999.0,61,-99.99,,,0.00,Acu-Link.com,2013-04-14 19:19:00,
2013-04-14 15:41:00,45.1,32.5,29.93,NE,45,1.7,-999.0,61,-99.99,,,0.00,Acu-Link.com,2013-04-14 19:41:00,
2013-04-14 16:08:00,45.7,33.4,29.93,East,90,3.7,-999.0,62,-99.99,,,0.00,Acu-Link.com,2013-04-14 20:08:00,
2013-04-14 16:29:00,48.9,35.2,29.92,ESE,112,3.7,-999.0,59,-99.99,,,0.00,Acu-Link.com,2013-04-14 20:29:00,
2013-04-14 17:17:00,48.9,34.3,29.88,SSE,157,3.2,-999.0,57,-99.99,,,0.00,Acu-Link.com,2013-04-14 21:17:00,
2013-04-14 17:37:00,50.7,35.6,29.88,ESE,112,2.7,-999.0,56,-99.99,,,0.00,Acu-Link.com,2013-04-14 21:37:00,
2013-04-14 17:52:00,51.6,35.5,29.87,ESE,112,4.2,-999.0,54,-99.99,,,0.00,Acu-Link.com,2013-04-14 21:52:00,
2013-04-14 18:07:00,52.0,35.9,29.87,South,180,7.3,-999.0,54,-99.99,,,0.00,Acu-Link.com,2013-04-14 22:07:00,
2013-04-14 18:23:00,52.3,36.6,29.88,East,90,4.2,-999.0,55,-99.99,,,0.00,Acu-Link.com,2013-04-14 22:23:00,
2013-04-14 18:38:00,50.9,36.2,29.87,ESE,112,5.3,-999.0,57,-99.99,,,0.00,Acu-Link.com,2013-04-14 22:38:00,
2013-04-14 18:53:00,49.8,35.2,29.88,ESE,112,3.7,-999.0,57,-99.99,,,0.00,Acu-Link.com,2013-04-14 22:53:00,
2013-04-14 19:08:00,48.9,34.3,29.88,NNW,337,1.7,-999.0,57,-99.99,,,0.00,Acu-Link.com,2013-04-14 23:08:00,
2013-04-14 19:24:00,47.5,33.9,29.89,SSE,157,4.7,-999.0,59,-99.99,,,0.00,Acu-Link.com,2013-04-14 23:24:00,
2013-04-14 19:39:00,45.9,34.0,29.89,South,180,2.7,-999.0,63,-99.99,,,0.00,Acu-Link.com,2013-04-14 23:39:00,
2013-04-14 19:54:00,44.2,33.6,29.88,West,270,2.7,-999.0,66,-99.99,,,0.00,Acu-Link.com,2013-04-14 23:54:00,
2013-04-14 20:19:00,42.3,33.2,29.88,SSE,157,2.7,-999.0,70,-99.99,,,0.00,Acu-Link.com,2013-04-15 00:19:00,
2013-04-14 20:52:00,41.0,33.0,29.87,SW,225,4.2,-999.0,73,-99.99,,,0.00,Acu-Link.com,2013-04-15 00:52:00,
2013-04-14 21:08:00,40.5,33.5,29.86,ESE,112,2.7,-999.0,76,-99.99,,,0.00,Acu-Link.com,2013-04-15 01:08:00,
2013-04-14 21:23:00,40.3,33.3,29.86,SSE,157,2.7,-999.0,76,-99.99,,,0.00,Acu-Link.com,2013-04-15 01:23:00,
2013-04-14 21:38:00,39.9,33.6,29.85,SSE,157,3.7,-999.0,78,-99.99,,,0.00,Acu-Link.com,2013-04-15 01:38:00,
2013-04-14 21:54:00,40.1,34.1,29.86,SE,135,4.7,-999.0,79,-99.99,,,0.00,Acu-Link.com,2013-04-15 01:54:00,
2013-04-14 22:10:00,39.9,34.2,29.85,SSW,202,3.2,-999.0,80,-99.99,,,0.00,Acu-Link.com,2013-04-15 02:10:00,
2013-04-14 22:25:00,39.6,34.6,29.85,SSE,157,2.7,-999.0,82,-99.99,,,0.00,Acu-Link.com,2013-04-15 02:25:00,
2013-04-14 22:44:00,39.0,34.3,29.85,ESE,112,2.2,-999.0,83,-99.99,,,0.00,Acu-Link.com,2013-04-15 02:44:00,
2013-04-14 22:59:00,38.8,34.4,29.84,South,180,2.7,-999.0,84,-99.99,,,0.00,Acu-Link.com,2013-04-15 02:59:00,
2013-04-14 23:14:00,38.7,34.3,29.83,WSW,247,3.2,-999.0,84,-99.99,,,0.00,Acu-Link.com,2013-04-15 03:14:00,
2013-04-14 23:29:00,38.3,33.9,29.83,SE,135,3.2,-999.0,84,-99.99,,,0.00,Acu-Link.com,2013-04-15 03:29:00,
2013-04-14 23:45:00,38.5,34.1,29.82,SSE,157,3.7,-999.0,84,-99.99,,,0.00,Acu-Link.com,2013-04-15 03:45:00,